Pont Aven — FNPN — position and weather

sailwx.info

Track history (hours):
 
Tides and Currents Weather Stations Pressure Air Temp Water Temp Dewpoint Dewpoint Depression Visibility Wind Speed Wind Dir Waves Ship Positions

Pont Aven

Last reported at 2017-Oct-18 07:05 UTC. Time now 2017-Oct-18 09:14 UTC.
Position N 47°34' W 005°05'.

Length 185 m; beam 31 m.

Type: Passenger vessel. MMSI: 228183600.

Date/timePositionNaut miles runAvg speedWind from/ knotsBaromVisibWave heightAir tempDewpointWater temp
2017-Oct-18 07:05N 47°34' W 005°05'323.7
2017-Oct-18 06:57N 47°37' W 005°06'1023.7
2017-Oct-18 06:30N 47°47' W 005°10'1224.6
2017-Oct-18 06:00N 47°59' W 005°14'1224.6
2017-Oct-18 05:30N 48°11' W 005°19'1224.2
2017-Oct-18 05:00N 48°23' W 005°23'1121.3
2017-Oct-18 04:30N 48°33' W 005°22'1121.9
2017-Oct-18 04:00N 48°41' W 005°11'1121.7
2017-Oct-18 03:30N 48°48' W 004°58'1121.6
2017-Oct-18 02:59N 48°56' W 004°46'1221.6
2017-Oct-18 02:26N 49°04' W 004°33'1021.9
2017-Oct-18 02:00N 49°11' W 004°22'1222.6
2017-Oct-18 01:30N 49°19' W 004°10'3824.2
2017-Oct-17 23:55N 49°43' W 003°24'1025.4
2017-Oct-17 23:31N 49°50' W 003°12'1325.5
2017-Oct-17 23:01N 49°57' W 002°56'1325.2
2017-Oct-17 22:30N 50°02' W 002°38'5822.8
2017-Oct-17 19:59N 50°29' W 001°19'1119.4
2017-Oct-17 19:25N 50°36' W 001°05'716.6
2017-Oct-17 19:00N 50°41' W 000°58'816.4
2017-Oct-17 18:31N 50°47' W 001°07'1 3.0
2017-Oct-17 18:01N 50°49' W 001°06'0 0.0
2017-Oct-17 17:31N 50°49' W 001°06'0 0.0
2017-Oct-17 17:01N 50°49' W 001°06'0 0.0
2017-Oct-17 16:30N 50°49' W 001°06'0 0.0
2017-Oct-17 16:01N 50°49' W 001°06'0 0.0
2017-Oct-17 15:31N 50°49' W 001°06'0 0.0
2017-Oct-17 15:01N 50°49' W 001°06'1 2.8
2017-Oct-17 14:30N 50°47' W 001°07'713.6
2017-Oct-17 14:00N 50°43' W 000°59'917.5
2017-Oct-17 13:30N 50°35' W 001°06'1120.4
2017-Oct-17 12:58N 50°28' W 001°19'1820.9
2017-Oct-17 12:07N 50°17' W 001°41'820.7
2017-Oct-17 11:44N 50°12' W 001°50'5721.5
2017-Oct-17 09:04N 49°42' W 003°07'122.0
2017-Oct-17 09:00N 49°42' W 003°09'1222.4
2017-Oct-17 08:27N 49°35' W 003°25'2922.2
2017-Oct-17 07:10N 49°18' W 003°60'422.0
2017-Oct-17 07:00N 49°15' W 004°04'1122.1
2017-Oct-17 06:30N 49°08' W 004°17'1122.1
2017-Oct-17 06:00N 49°01' W 004°30'1122.0
2017-Oct-17 05:30N 48°54' W 004°43'1122.4
2017-Oct-17 05:00N 48°48' W 004°56'1122.8
2017-Oct-17 04:30N 48°41' W 005°10'1223.1
2017-Oct-17 04:00N 48°32' W 005°22'1121.7
2017-Oct-17 03:30N 48°21' W 005°24'1122.4
2017-Oct-17 03:00N 48°10' W 005°24'1122.6
2017-Oct-17 02:30N 47°59' W 005°24'1122.7
2017-Oct-17 02:00N 47°48' W 005°23'1122.3
2017-Oct-17 01:31N 47°36' W 005°23'1222.5
2017-Oct-17 00:58N 47°24' W 005°23'1122.4
2017-Oct-17 00:28N 47°13' W 005°22'1122.4
2017-Oct-16 23:59N 47°02' W 005°20'1122.8
2017-Oct-16 23:29N 46°51' W 005°19'1123.2
2017-Oct-16 23:00N 46°40' W 005°17'1222.6
2017-Oct-16 22:28N 46°28' W 005°15'1022.2
2017-Oct-16 22:01N 46°18' W 005°14'16122.1
2017-Oct-16 14:43N 43°43' W 004°11'522.9
2017-Oct-16 14:30N 43°40' W 004°05'1818.1
2017-Oct-16 13:30N 43°28' W 003°47'1 1.7
2017-Oct-16 13:00N 43°28' W 003°48'0 0.0
2017-Oct-16 12:31N 43°28' W 003°48'0 0.0
2017-Oct-16 12:00N 43°28' W 003°48'0 0.0
2017-Oct-16 11:30N 43°28' W 003°48'0 0.0
2017-Oct-16 11:00N 43°28' W 003°48'0 0.0
2017-Oct-16 10:31N 43°28' W 003°48'3 6.9
2017-Oct-16 10:00N 43°30' W 003°45'1224.0
2017-Oct-16 09:31N 43°42' W 003°49'1224.1
2017-Oct-16 09:00N 43°54' W 003°53'1324.1
2017-Oct-16 08:29N 44°06' W 003°57'6323.9
2017-Oct-16 05:50N 45°08' W 004°16'823.4
2017-Oct-16 05:30N 45°15' W 004°18'1223.4
2017-Oct-16 05:01N 45°27' W 004°22'1122.8
2017-Oct-16 04:30N 45°38' W 004°26'1122.6
2017-Oct-16 04:00N 45°49' W 004°30'1122.5
2017-Oct-16 03:31N 45°59' W 004°34'1122.3
2017-Oct-16 03:00N 46°10' W 004°38'1122.4
2017-Oct-16 02:30N 46°21' W 004°41'1122.4
2017-Oct-16 02:00N 46°32' W 004°44'1122.5
2017-Oct-16 01:30N 46°43' W 004°48'1223.2
2017-Oct-16 01:01N 46°55' W 004°52'1122.8
2017-Oct-16 00:30N 47°06' W 004°56'1122.9
2017-Oct-16 00:00N 47°17' W 004°60'1122.8
2017-Oct-15 23:30N 47°28' W 005°04'1122.6
2017-Oct-15 23:00N 47°39' W 005°08'1122.1
2017-Oct-15 22:30N 47°50' W 005°11'1121.8
2017-Oct-15 22:00N 48°00' W 005°14'1122.1
2017-Oct-15 21:30N 48°11' W 005°18'1122.3
2017-Oct-15 21:00N 48°22' W 005°23'1621.5
2017-Oct-15 20:15N 48°37' W 005°16'623.3
2017-Oct-15 20:00N 48°42' W 005°11'1223.5
2017-Oct-15 19:29N 48°53' W 005°03'2023.3
2017-Oct-15 18:37N 49°13' W 004°54'2223.1
2017-Oct-15 17:40N 49°33' W 004°41'2122.8
2017-Oct-15 16:45N 49°53' W 004°32'622.8
2017-Oct-15 16:31N 49°58' W 004°28'1122.7
2017-Oct-15 16:00N 50°08' W 004°21'1122.4
2017-Oct-15 15:30N 50°18' W 004°12'4 8.4
2017-Oct-15 15:00N 50°22' W 004°09'0 0.0
2017-Oct-15 14:00N 50°22' W 004°09'0 0.0
2017-Oct-15 13:30N 50°22' W 004°09'0 0.0
2017-Oct-15 13:00N 50°22' W 004°09'0 0.1
2017-Oct-15 12:30N 50°22' W 004°09'3 6.9
2017-Oct-15 12:01N 50°18' W 004°10'1223.7
2017-Oct-15 11:30N 50°07' W 004°09'1223.8
2017-Oct-15 11:00N 49°55' W 004°06'1223.7
2017-Oct-15 10:29N 49°43' W 004°04'1123.7
2017-Oct-15 10:00N 49°31' W 004°02'1223.4
2017-Oct-15 09:31N 49°20' W 004°00'1323.4
2017-Oct-15 08:58N 49°07' W 003°60'1123.1
2017-Oct-15 08:30N 48°56' W 003°59'1122.3
2017-Oct-15 08:01N 48°45' W 003°57'2 4.3
2017-Oct-15 07:30N 48°43' W 003°58'0 0.0
2017-Oct-15 06:49N 48°43' W 003°58'0 0.0
2017-Oct-15 06:16N 48°43' W 003°58'0 0.0
2017-Oct-15 05:59N 48°43' W 003°58'0 0.0
2017-Oct-15 05:26N 48°43' W 003°58'0 0.0
2017-Oct-15 05:00N 48°43' W 003°58'2 2.7
2017-Oct-15 04:25N 48°45' W 003°57'512.0
2017-Oct-15 04:00N 48°49' W 004°01'916.8
2017-Oct-15 03:30N 48°55' W 004°11'815.8
2017-Oct-15 02:59N 49°00' W 004°20'1015.9
2017-Oct-15 02:21N 49°07' W 004°32'615.9
2017-Oct-15 02:00N 49°10' W 004°39'1115.7
2017-Oct-15 01:18N 49°17' W 004°51'516.6
2017-Oct-15 01:00N 49°21' W 004°57'916.7
2017-Oct-15 00:28N 49°27' W 005°07'1016.6
2017-Oct-14 23:51N 49°34' W 005°18'616.3
2017-Oct-14 23:28N 49°38' W 005°26'919.7
2017-Oct-14 23:00N 49°44' W 005°37'1122.4
2017-Oct-14 22:30N 49°51' W 005°50'1121.7
2017-Oct-14 22:00N 49°58' W 006°01'2122.1
2017-Oct-14 21:04N 50°19' W 006°03'121.5
2017-Oct-14 21:01N 50°20' W 006°04'1422.4
2017-Oct-14 20:22N 50°31' W 006°19'822.5
2017-Oct-14 19:59N 50°37' W 006°29'1422.3
2017-Oct-14 19:22N 50°46' W 006°44'6022.4
2017-Oct-14 16:43N 51°29' W 007°50'522.5
2017-Oct-14 16:30N 51°32' W 007°56'1123.0
2017-Oct-14 16:01N 51°41' W 008°08'1019.1
2017-Oct-14 15:30N 51°49' W 008°16'2 4.5
2017-Oct-14 15:01N 51°50' W 008°20'0 0.1
2017-Oct-14 14:31N 51°50' W 008°19'0 0.0
2017-Oct-14 14:00N 51°50' W 008°19'0 0.0
2017-Oct-14 13:31N 51°50' W 008°19'0 0.0
2017-Oct-14 13:00N 51°50' W 008°19'0 0.0
2017-Oct-14 12:30N 51°50' W 008°19'0 0.0
2017-Oct-14 12:00N 51°50' W 008°19'0 0.0
2017-Oct-14 11:30N 51°50' W 008°19'0 0.0
2017-Oct-14 11:01N 51°50' W 008°19'0 0.0
2017-Oct-14 10:30N 51°50' W 008°19'0 0.0
2017-Oct-14 10:01N 51°50' W 008°19'0 0.0
2017-Oct-14 09:31N 51°50' W 008°19'0 0.0
2017-Oct-14 09:01N 51°50' W 008°19'0 0.0
2017-Oct-14 08:31N 51°50' W 008°19'0 0.7
2017-Oct-14 08:01N 51°50' W 008°19'3 5.3
2017-Oct-14 07:30N 51°49' W 008°16'816.4
2017-Oct-14 07:00N 51°41' W 008°13'816.3
2017-Oct-14 06:31N 51°36' W 008°02'917.0
2017-Oct-14 06:00N 51°31' W 007°52'816.9
2017-Oct-14 05:30N 51°25' W 007°42'916.6
2017-Oct-14 05:00N 51°19' W 007°32'14219.5
2017-Oct-13 21:45N 49°32' W 005°07'622.3
2017-Oct-13 21:29N 49°28' W 005°00'1122.4
2017-Oct-13 21:00N 49°21' W 004°48'1222.2
2017-Oct-13 20:29N 49°13' W 004°35'3121.8
2017-Oct-13 19:05N 48°52' W 004°01'7 0.5
2017-Oct-13 05:28N 48°45' W 003°57'816.4
2017-Oct-13 05:00N 48°53' W 003°57'816.3
2017-Oct-13 04:30N 49°01' W 003°59'1116.4
2017-Oct-13 03:49N 49°12' W 004°02'5016.4
2017-Oct-13 00:45N 50°01' W 004°18'416.3
2017-Oct-13 00:30N 50°05' W 004°20'816.4
2017-Oct-13 00:01N 50°13' W 004°22'612.1
2017-Oct-12 23:30N 50°19' W 004°23'1 1.4
2017-Oct-12 23:00N 50°18' W 004°23'1 1.3
2017-Oct-12 22:31N 50°18' W 004°23'1 1.2
2017-Oct-12 22:00N 50°17' W 004°24'1 1.3
2017-Oct-12 21:30N 50°16' W 004°24'0 0.9
2017-Oct-12 21:01N 50°16' W 004°24'4 7.1
2017-Oct-12 20:30N 50°17' W 004°18'611.1
2017-Oct-12 20:01N 50°19' W 004°11'3 5.4
2017-Oct-12 19:30N 50°22' W 004°09'0 0.0
2017-Oct-12 19:00N 50°22' W 004°09'0 0.0
2017-Oct-12 18:30N 50°22' W 004°09'0 0.0
2017-Oct-12 18:00N 50°22' W 004°09'0 0.0
2017-Oct-12 17:30N 50°22' W 004°09'0 0.0
2017-Oct-12 17:01N 50°22' W 004°09'0 0.0
2017-Oct-12 16:30N 50°22' W 004°09'0 0.0
2017-Oct-12 16:00N 50°22' W 004°09'0 0.0
2017-Oct-12 15:31N 50°22' W 004°09'0 0.3
2017-Oct-12 15:00N 50°22' W 004°09'4 7.5
2017-Oct-12 14:30N 50°18' W 004°11'1122.0
2017-Oct-12 14:01N 50°07' W 004°15'1222.4
2017-Oct-12 13:30N 49°56' W 004°21'2122.4
2017-Oct-12 12:34N 49°36' W 004°29'322.4
2017-Oct-12 12:26N 49°33' W 004°30'1022.4
2017-Oct-12 12:00N 49°24' W 004°34'1522.4
2017-Oct-12 11:20N 49°10' W 004°40'822.5
2017-Oct-12 10:59N 49°02' W 004°44'1622.5
2017-Oct-12 10:17N 48°47' W 004°51'622.5
2017-Oct-12 10:00N 48°41' W 004°54'1122.4
2017-Oct-12 09:30N 48°31' W 004°59'816.5
2017-Oct-12 09:00N 48°24' W 005°05'1122.7
2017-Oct-12 08:30N 48°12' W 005°09'1223.0
2017-Oct-12 08:01N 48°01' W 005°09'1122.2
2017-Oct-12 07:31N 47°50' W 005°04'1122.3
2017-Oct-12 07:01N 47°39' W 005°01'1122.3
2017-Oct-12 06:30N 47°28' W 004°59'1622.3
2017-Oct-12 05:46N 47°12' W 004°54'722.3
2017-Oct-12 05:29N 47°06' W 004°52'1122.6
2017-Oct-12 05:00N 46°55' W 004°48'1122.5
2017-Oct-12 04:29N 46°44' W 004°44'1122.4
2017-Oct-12 04:00N 46°33' W 004°41'1222.6
2017-Oct-12 03:28N 46°22' W 004°38'1222.7
2017-Oct-12 02:58N 46°10' W 004°36'1022.5
2017-Oct-12 02:30N 46°00' W 004°32'2122.5
2017-Oct-12 01:34N 45°40' W 004°24'11523.0
2017-Oct-11 20:34N 43°47' W 003°52'122.6
2017-Oct-11 20:31N 43°46' W 003°51'1123.0
2017-Oct-11 20:01N 43°35' W 003°48'814.9
2017-Oct-11 19:30N 43°27' W 003°48'1 1.2
2017-Oct-11 19:00N 43°28' W 003°48'0 0.0
2017-Oct-11 18:30N 43°28' W 003°48'0 0.0
2017-Oct-11 18:00N 43°28' W 003°48'0 0.0
2017-Oct-11 17:30N 43°28' W 003°48'0 0.0
2017-Oct-11 17:00N 43°28' W 003°48'34320.1
2017-Oct-10 23:59N 49°10' W 004°03'1123.1
2017-Oct-10 23:30N 49°18' W 003°51'1222.5
2017-Oct-10 22:57N 49°27' W 003°38'1621.0
2017-Oct-10 22:10N 49°40' W 003°23'321.1
2017-Oct-10 22:01N 49°41' W 003°18'1420.5
2017-Oct-10 21:19N 49°51' W 003°02'721.2
2017-Oct-10 21:01N 49°56' W 002°56'1121.1
2017-Oct-10 20:29N 50°02' W 002°41'6323.3
2017-Oct-10 17:47N 50°32' W 001°14'623.1
2017-Oct-10 17:30N 50°36' W 001°07'815.8
2017-Oct-10 17:00N 50°44' W 001°04'510.2
2017-Oct-10 16:31N 50°49' W 001°06'0 0.0
2017-Oct-10 16:00N 50°49' W 001°06'0 0.0
2017-Oct-10 15:30N 50°49' W 001°06'0 0.0
2017-Oct-10 15:00N 50°49' W 001°06'0 0.0
2017-Oct-10 14:00N 50°49' W 001°06'0 0.0
2017-Oct-10 13:30N 50°49' W 001°06'0 0.0
2017-Oct-10 13:01N 50°49' W 001°06'2 3.9
2017-Oct-10 12:30N 50°47' W 001°06'713.4
2017-Oct-10 12:01N 50°40' W 001°04'1020.3
2017-Oct-10 11:30N 50°32' W 001°13'7922.0
2017-Oct-10 07:53N 49°46' W 002°54'1122.1
2017-Oct-10 07:24N 49°39' W 003°07'921.9
2017-Oct-10 06:59N 49°33' W 003°17'5124.0
2017-Oct-10 04:52N 48°58' W 004°14'1024.0
2017-Oct-10 04:26N 48°51' W 004°25'1024.0
2017-Oct-10 04:00N 48°44' W 004°37'1224.1
2017-Oct-10 03:31N 48°35' W 004°49'1121.6
2017-Oct-10 03:01N 48°27' W 005°00'1019.3
2017-Oct-10 02:31N 48°19' W 005°07'1224.0
2017-Oct-10 02:00N 48°07' W 005°10'1223.4
2017-Oct-10 01:31N 47°55' W 005°09'1223.0
2017-Oct-10 01:00N 47°44' W 005°05'1123.0
2017-Oct-10 00:31N 47°33' W 005°01'1423.3
2017-Oct-09 23:55N 47°19' W 004°57'922.9
2017-Oct-09 23:30N 47°10' W 004°54'1322.8
2017-Oct-09 22:56N 46°57' W 004°50'1022.9
2017-Oct-09 22:29N 46°47' W 004°46'1123.3
2017-Oct-09 22:00N 46°36' W 004°43'1523.3
2017-Oct-09 21:21N 46°22' W 004°37'822.6
2017-Oct-09 21:00N 46°14' W 004°35'13623.3
2017-Oct-09 15:10N 44°01' W 003°54'1423.2
2017-Oct-09 14:34N 43°48' W 003°50'123.4
2017-Oct-09 14:30N 43°46' W 003°49'1223.5
2017-Oct-09 14:01N 43°35' W 003°46'815.1
2017-Oct-09 13:30N 43°27' W 003°48'0 1.0
2017-Oct-09 13:00N 43°28' W 003°48'0 0.0
2017-Oct-09 12:30N 43°28' W 003°48'0 0.0
2017-Oct-09 12:00N 43°28' W 003°48'0 0.0
2017-Oct-09 11:30N 43°28' W 003°48'0 0.0
2017-Oct-09 11:00N 43°28' W 003°48'0 0.0
2017-Oct-09 10:30N 43°28' W 003°48'0 0.0
2017-Oct-09 10:00N 43°28' W 003°48'4 7.4
2017-Oct-09 09:30N 43°30' W 003°45'1223.1
2017-Oct-09 09:00N 43°41' W 003°49'1223.4
2017-Oct-09 08:31N 43°53' W 003°53'1223.5
2017-Oct-09 08:00N 44°04' W 003°56'22523.3
2017-Oct-08 22:20N 47°44' W 005°04'824.9
2017-Oct-08 22:00N 47°53' W 005°07'1325.5
2017-Oct-08 21:29N 48°06' W 005°10'1224.5
2017-Oct-08 21:00N 48°17' W 005°08'1121.2
2017-Oct-08 20:30N 48°27' W 005°01'1020.9
2017-Oct-08 20:00N 48°37' W 004°57'1223.3
2017-Oct-08 19:30N 48°48' W 004°54'1322.6
2017-Oct-08 18:57N 49°01' W 004°49'4822.1
2017-Oct-08 16:46N 49°47' W 004°27'622.6
2017-Oct-08 16:31N 49°52' W 004°24'1122.9
2017-Oct-08 16:01N 50°03' W 004°18'1123.0
2017-Oct-08 15:31N 50°14' W 004°12'815.7
2017-Oct-08 15:00N 50°21' W 004°09'1 1.3
2017-Oct-08 14:30N 50°22' W 004°09'0 0.0
2017-Oct-08 14:00N 50°22' W 004°09'0 0.0
2017-Oct-08 13:30N 50°22' W 004°09'0 0.0
2017-Oct-08 13:00N 50°22' W 004°09'0 0.0
2017-Oct-08 12:30N 50°22' W 004°09'0 1.0
2017-Oct-08 12:00N 50°21' W 004°09'714.1
2017-Oct-08 11:31N 50°15' W 004°11'1122.8
2017-Oct-08 11:00N 50°03' W 004°09'1122.7
2017-Oct-08 10:30N 49°52' W 004°04'1222.9
2017-Oct-08 09:59N 49°40' W 004°04'1123.0
2017-Oct-08 09:29N 49°29' W 004°04'1223.1
2017-Oct-08 08:57N 49°16' W 004°02'  
Track history (hours):
 
Tides and Currents Weather Stations Pressure Air Temp Water Temp Dewpoint Dewpoint Depression Visibility Wind Speed Wind Dir Waves Ship Positions

Pont Aven

Last reported at 2017-Oct-18 07:05 UTC. Time now 2017-Oct-18 09:14 UTC.
Position N 47°34' W 005°05'.

Length 185 m; beam 31 m.

Type: Passenger vessel. MMSI: 228183600.

Date/timePositionNaut miles runAvg speedWind from/ knotsBaromVisibWave heightAir tempDewpointWater temp
2017-Oct-18 07:05N 47°34' W 005°05'323.7
2017-Oct-18 06:57N 47°37' W 005°06'1023.7
2017-Oct-18 06:30N 47°47' W 005°10'1224.6
2017-Oct-18 06:00N 47°59' W 005°14'1224.6
2017-Oct-18 05:30N 48°11' W 005°19'1224.2
2017-Oct-18 05:00N 48°23' W 005°23'1121.3
2017-Oct-18 04:30N 48°33' W 005°22'1121.9
2017-Oct-18 04:00N 48°41' W 005°11'1121.7
2017-Oct-18 03:30N 48°48' W 004°58'1121.6
2017-Oct-18 02:59N 48°56' W 004°46'1221.6
2017-Oct-18 02:26N 49°04' W 004°33'1021.9
2017-Oct-18 02:00N 49°11' W 004°22'1222.6
2017-Oct-18 01:30N 49°19' W 004°10'3824.2
2017-Oct-17 23:55N 49°43' W 003°24'1025.4
2017-Oct-17 23:31N 49°50' W 003°12'1325.5
2017-Oct-17 23:01N 49°57' W 002°56'1325.2
2017-Oct-17 22:30N 50°02' W 002°38'5822.8
2017-Oct-17 19:59N 50°29' W 001°19'1119.4
2017-Oct-17 19:25N 50°36' W 001°05'716.6
2017-Oct-17 19:00N 50°41' W 000°58'816.4
2017-Oct-17 18:31N 50°47' W 001°07'1 3.0
2017-Oct-17 18:01N 50°49' W 001°06'0 0.0
2017-Oct-17 17:31N 50°49' W 001°06'0 0.0
2017-Oct-17 17:01N 50°49' W 001°06'0 0.0
2017-Oct-17 16:30N 50°49' W 001°06'0 0.0
2017-Oct-17 16:01N 50°49' W 001°06'0 0.0
2017-Oct-17 15:31N 50°49' W 001°06'0 0.0
2017-Oct-17 15:01N 50°49' W 001°06'1 2.8
2017-Oct-17 14:30N 50°47' W 001°07'713.6
2017-Oct-17 14:00N 50°43' W 000°59'917.5
2017-Oct-17 13:30N 50°35' W 001°06'1120.4
2017-Oct-17 12:58N 50°28' W 001°19'1820.9
2017-Oct-17 12:07N 50°17' W 001°41'820.7
2017-Oct-17 11:44N 50°12' W 001°50'5721.5
2017-Oct-17 09:04N 49°42' W 003°07'122.0
2017-Oct-17 09:00N 49°42' W 003°09'1222.4
2017-Oct-17 08:27N 49°35' W 003°25'2922.2
2017-Oct-17 07:10N 49°18' W 003°60'422.0
2017-Oct-17 07:00N 49°15' W 004°04'1122.1
2017-Oct-17 06:30N 49°08' W 004°17'1122.1
2017-Oct-17 06:00N 49°01' W 004°30'1122.0
2017-Oct-17 05:30N 48°54' W 004°43'1122.4
2017-Oct-17 05:00N 48°48' W 004°56'1122.8
2017-Oct-17 04:30N 48°41' W 005°10'1223.1
2017-Oct-17 04:00N 48°32' W 005°22'1121.7
2017-Oct-17 03:30N 48°21' W 005°24'1122.4
2017-Oct-17 03:00N 48°10' W 005°24'1122.6
2017-Oct-17 02:30N 47°59' W 005°24'1122.7
2017-Oct-17 02:00N 47°48' W 005°23'1122.3
2017-Oct-17 01:31N 47°36' W 005°23'1222.5
2017-Oct-17 00:58N 47°24' W 005°23'1122.4
2017-Oct-17 00:28N 47°13' W 005°22'1122.4
2017-Oct-16 23:59N 47°02' W 005°20'1122.8
2017-Oct-16 23:29N 46°51' W 005°19'1123.2
2017-Oct-16 23:00N 46°40' W 005°17'1222.6
2017-Oct-16 22:28N 46°28' W 005°15'1022.2
2017-Oct-16 22:01N 46°18' W 005°14'16122.1
2017-Oct-16 14:43N 43°43' W 004°11'522.9
2017-Oct-16 14:30N 43°40' W 004°05'1818.1
2017-Oct-16 13:30N 43°28' W 003°47'1 1.7
2017-Oct-16 13:00N 43°28' W 003°48'0 0.0
2017-Oct-16 12:31N 43°28' W 003°48'0 0.0
2017-Oct-16 12:00N 43°28' W 003°48'0 0.0
2017-Oct-16 11:30N 43°28' W 003°48'0 0.0
2017-Oct-16 11:00N 43°28' W 003°48'0 0.0
2017-Oct-16 10:31N 43°28' W 003°48'3 6.9
2017-Oct-16 10:00N 43°30' W 003°45'1224.0
2017-Oct-16 09:31N 43°42' W 003°49'1224.1
2017-Oct-16 09:00N 43°54' W 003°53'1324.1
2017-Oct-16 08:29N 44°06' W 003°57'6323.9
2017-Oct-16 05:50N 45°08' W 004°16'823.4
2017-Oct-16 05:30N 45°15' W 004°18'1223.4
2017-Oct-16 05:01N 45°27' W 004°22'1122.8
2017-Oct-16 04:30N 45°38' W 004°26'1122.6
2017-Oct-16 04:00N 45°49' W 004°30'1122.5
2017-Oct-16 03:31N 45°59' W 004°34'1122.3
2017-Oct-16 03:00N 46°10' W 004°38'1122.4
2017-Oct-16 02:30N 46°21' W 004°41'1122.4
2017-Oct-16 02:00N 46°32' W 004°44'1122.5
2017-Oct-16 01:30N 46°43' W 004°48'1223.2
2017-Oct-16 01:01N 46°55' W 004°52'1122.8
2017-Oct-16 00:30N 47°06' W 004°56'1122.9
2017-Oct-16 00:00N 47°17' W 004°60'1122.8
2017-Oct-15 23:30N 47°28' W 005°04'1122.6
2017-Oct-15 23:00N 47°39' W 005°08'1122.1
2017-Oct-15 22:30N 47°50' W 005°11'1121.8
2017-Oct-15 22:00N 48°00' W 005°14'1122.1
2017-Oct-15 21:30N 48°11' W 005°18'1122.3
2017-Oct-15 21:00N 48°22' W 005°23'1621.5
2017-Oct-15 20:15N 48°37' W 005°16'623.3
2017-Oct-15 20:00N 48°42' W 005°11'1223.5
2017-Oct-15 19:29N 48°53' W 005°03'2023.3
2017-Oct-15 18:37N 49°13' W 004°54'2223.1
2017-Oct-15 17:40N 49°33' W 004°41'2122.8
2017-Oct-15 16:45N 49°53' W 004°32'622.8
2017-Oct-15 16:31N 49°58' W 004°28'1122.7
2017-Oct-15 16:00N 50°08' W 004°21'1122.4
2017-Oct-15 15:30N 50°18' W 004°12'4 8.4
2017-Oct-15 15:00N 50°22' W 004°09'0 0.0
2017-Oct-15 14:00N 50°22' W 004°09'0 0.0
2017-Oct-15 13:30N 50°22' W 004°09'0 0.0
2017-Oct-15 13:00N 50°22' W 004°09'0 0.1
2017-Oct-15 12:30N 50°22' W 004°09'3 6.9
2017-Oct-15 12:01N 50°18' W 004°10'1223.7
2017-Oct-15 11:30N 50°07' W 004°09'1223.8
2017-Oct-15 11:00N 49°55' W 004°06'1223.7
2017-Oct-15 10:29N 49°43' W 004°04'1123.7
2017-Oct-15 10:00N 49°31' W 004°02'1223.4
2017-Oct-15 09:31N 49°20' W 004°00'1323.4
2017-Oct-15 08:58N 49°07' W 003°60'1123.1
2017-Oct-15 08:30N 48°56' W 003°59'1122.3
2017-Oct-15 08:01N 48°45' W 003°57'2 4.3
2017-Oct-15 07:30N 48°43' W 003°58'0 0.0
2017-Oct-15 06:49N 48°43' W 003°58'0 0.0
2017-Oct-15 06:16N 48°43' W 003°58'0 0.0
2017-Oct-15 05:59N 48°43' W 003°58'0 0.0
2017-Oct-15 05:26N 48°43' W 003°58'0 0.0
2017-Oct-15 05:00N 48°43' W 003°58'2 2.7
2017-Oct-15 04:25N 48°45' W 003°57'512.0
2017-Oct-15 04:00N 48°49' W 004°01'916.8
2017-Oct-15 03:30N 48°55' W 004°11'815.8
2017-Oct-15 02:59N 49°00' W 004°20'1015.9
2017-Oct-15 02:21N 49°07' W 004°32'615.9
2017-Oct-15 02:00N 49°10' W 004°39'1115.7
2017-Oct-15 01:18N 49°17' W 004°51'516.6
2017-Oct-15 01:00N 49°21' W 004°57'916.7
2017-Oct-15 00:28N 49°27' W 005°07'1016.6
2017-Oct-14 23:51N 49°34' W 005°18'616.3
2017-Oct-14 23:28N 49°38' W 005°26'919.7
2017-Oct-14 23:00N 49°44' W 005°37'1122.4
2017-Oct-14 22:30N 49°51' W 005°50'1121.7
2017-Oct-14 22:00N 49°58' W 006°01'2122.1
2017-Oct-14 21:04N 50°19' W 006°03'121.5
2017-Oct-14 21:01N 50°20' W 006°04'1422.4
2017-Oct-14 20:22N 50°31' W 006°19'822.5
2017-Oct-14 19:59N 50°37' W 006°29'1422.3
2017-Oct-14 19:22N 50°46' W 006°44'6022.4
2017-Oct-14 16:43N 51°29' W 007°50'522.5
2017-Oct-14 16:30N 51°32' W 007°56'1123.0
2017-Oct-14 16:01N 51°41' W 008°08'1019.1
2017-Oct-14 15:30N 51°49' W 008°16'2 4.5
2017-Oct-14 15:01N 51°50' W 008°20'0 0.1
2017-Oct-14 14:31N 51°50' W 008°19'0 0.0
2017-Oct-14 14:00N 51°50' W 008°19'0 0.0
2017-Oct-14 13:31N 51°50' W 008°19'0 0.0
2017-Oct-14 13:00N 51°50' W 008°19'0 0.0
2017-Oct-14 12:30N 51°50' W 008°19'0 0.0
2017-Oct-14 12:00N 51°50' W 008°19'0 0.0
2017-Oct-14 11:30N 51°50' W 008°19'0 0.0
2017-Oct-14 11:01N 51°50' W 008°19'0 0.0
2017-Oct-14 10:30N 51°50' W 008°19'0 0.0
2017-Oct-14 10:01N 51°50' W 008°19'0 0.0
2017-Oct-14 09:31N 51°50' W 008°19'0 0.0
2017-Oct-14 09:01N 51°50' W 008°19'0 0.0
2017-Oct-14 08:31N 51°50' W 008°19'0 0.7
2017-Oct-14 08:01N 51°50' W 008°19'3 5.3
2017-Oct-14 07:30N 51°49' W 008°16'816.4
2017-Oct-14 07:00N 51°41' W 008°13'816.3
2017-Oct-14 06:31N 51°36' W 008°02'917.0
2017-Oct-14 06:00N 51°31' W 007°52'816.9
2017-Oct-14 05:30N 51°25' W 007°42'916.6
2017-Oct-14 05:00N 51°19' W 007°32'14219.5
2017-Oct-13 21:45N 49°32' W 005°07'622.3
2017-Oct-13 21:29N 49°28' W 005°00'1122.4
2017-Oct-13 21:00N 49°21' W 004°48'1222.2
2017-Oct-13 20:29N 49°13' W 004°35'3121.8
2017-Oct-13 19:05N 48°52' W 004°01'7 0.5
2017-Oct-13 05:28N 48°45' W 003°57'816.4
2017-Oct-13 05:00N 48°53' W 003°57'816.3
2017-Oct-13 04:30N 49°01' W 003°59'1116.4
2017-Oct-13 03:49N 49°12' W 004°02'5016.4
2017-Oct-13 00:45N 50°01' W 004°18'416.3
2017-Oct-13 00:30N 50°05' W 004°20'816.4
2017-Oct-13 00:01N 50°13' W 004°22'612.1
2017-Oct-12 23:30N 50°19' W 004°23'1 1.4
2017-Oct-12 23:00N 50°18' W 004°23'1 1.3
2017-Oct-12 22:31N 50°18' W 004°23'1 1.2
2017-Oct-12 22:00N 50°17' W 004°24'1 1.3
2017-Oct-12 21:30N 50°16' W 004°24'0 0.9
2017-Oct-12 21:01N 50°16' W 004°24'4 7.1
2017-Oct-12 20:30N 50°17' W 004°18'611.1
2017-Oct-12 20:01N 50°19' W 004°11'3 5.4
2017-Oct-12 19:30N 50°22' W 004°09'0 0.0
2017-Oct-12 19:00N 50°22' W 004°09'0 0.0
2017-Oct-12 18:30N 50°22' W 004°09'0 0.0
2017-Oct-12 18:00N 50°22' W 004°09'0 0.0
2017-Oct-12 17:30N 50°22' W 004°09'0 0.0
2017-Oct-12 17:01N 50°22' W 004°09'0 0.0
2017-Oct-12 16:30N 50°22' W 004°09'0 0.0
2017-Oct-12 16:00N 50°22' W 004°09'0 0.0
2017-Oct-12 15:31N 50°22' W 004°09'0 0.3
2017-Oct-12 15:00N 50°22' W 004°09'4 7.5
2017-Oct-12 14:30N 50°18' W 004°11'1122.0
2017-Oct-12 14:01N 50°07' W 004°15'1222.4
2017-Oct-12 13:30N 49°56' W 004°21'2122.4
2017-Oct-12 12:34N 49°36' W 004°29'322.4
2017-Oct-12 12:26N 49°33' W 004°30'1022.4
2017-Oct-12 12:00N 49°24' W 004°34'1522.4
2017-Oct-12 11:20N 49°10' W 004°40'822.5
2017-Oct-12 10:59N 49°02' W 004°44'1622.5
2017-Oct-12 10:17N 48°47' W 004°51'622.5
2017-Oct-12 10:00N 48°41' W 004°54'1122.4
2017-Oct-12 09:30N 48°31' W 004°59'816.5
2017-Oct-12 09:00N 48°24' W 005°05'1122.7
2017-Oct-12 08:30N 48°12' W 005°09'1223.0
2017-Oct-12 08:01N 48°01' W 005°09'1122.2
2017-Oct-12 07:31N 47°50' W 005°04'1122.3
2017-Oct-12 07:01N 47°39' W 005°01'1122.3
2017-Oct-12 06:30N 47°28' W 004°59'1622.3
2017-Oct-12 05:46N 47°12' W 004°54'722.3
2017-Oct-12 05:29N 47°06' W 004°52'1122.6
2017-Oct-12 05:00N 46°55' W 004°48'1122.5
2017-Oct-12 04:29N 46°44' W 004°44'1122.4
2017-Oct-12 04:00N 46°33' W 004°41'1222.6
2017-Oct-12 03:28N 46°22' W 004°38'1222.7
2017-Oct-12 02:58N 46°10' W 004°36'1022.5
2017-Oct-12 02:30N 46°00' W 004°32'2122.5
2017-Oct-12 01:34N 45°40' W 004°24'11523.0
2017-Oct-11 20:34N 43°47' W 003°52'122.6
2017-Oct-11 20:31N 43°46' W 003°51'1123.0
2017-Oct-11 20:01N 43°35' W 003°48'814.9
2017-Oct-11 19:30N 43°27' W 003°48'1 1.2
2017-Oct-11 19:00N 43°28' W 003°48'0 0.0
2017-Oct-11 18:30N 43°28' W 003°48'0 0.0
2017-Oct-11 18:00N 43°28' W 003°48'0 0.0
2017-Oct-11 17:30N 43°28' W 003°48'0 0.0
2017-Oct-11 17:00N 43°28' W 003°48'34320.1
2017-Oct-10 23:59N 49°10' W 004°03'1123.1
2017-Oct-10 23:30N 49°18' W 003°51'1222.5
2017-Oct-10 22:57N 49°27' W 003°38'1621.0
2017-Oct-10 22:10N 49°40' W 003°23'321.1
2017-Oct-10 22:01N 49°41' W 003°18'1420.5
2017-Oct-10 21:19N 49°51' W 003°02'721.2
2017-Oct-10 21:01N 49°56' W 002°56'1121.1
2017-Oct-10 20:29N 50°02' W 002°41'6323.3
2017-Oct-10 17:47N 50°32' W 001°14'623.1
2017-Oct-10 17:30N 50°36' W 001°07'815.8
2017-Oct-10 17:00N 50°44' W 001°04'510.2
2017-Oct-10 16:31N 50°49' W 001°06'0 0.0
2017-Oct-10 16:00N 50°49' W 001°06'0 0.0
2017-Oct-10 15:30N 50°49' W 001°06'0 0.0
2017-Oct-10 15:00N 50°49' W 001°06'0 0.0
2017-Oct-10 14:00N 50°49' W 001°06'0 0.0
2017-Oct-10 13:30N 50°49' W 001°06'0 0.0
2017-Oct-10 13:01N 50°49' W 001°06'2 3.9
2017-Oct-10 12:30N 50°47' W 001°06'713.4
2017-Oct-10 12:01N 50°40' W 001°04'1020.3
2017-Oct-10 11:30N 50°32' W 001°13'7922.0
2017-Oct-10 07:53N 49°46' W 002°54'1122.1
2017-Oct-10 07:24N 49°39' W 003°07'921.9
2017-Oct-10 06:59N 49°33' W 003°17'5124.0
2017-Oct-10 04:52N 48°58' W 004°14'1024.0
2017-Oct-10 04:26N 48°51' W 004°25'1024.0
2017-Oct-10 04:00N 48°44' W 004°37'1224.1
2017-Oct-10 03:31N 48°35' W 004°49'1121.6
2017-Oct-10 03:01N 48°27' W 005°00'1019.3
2017-Oct-10 02:31N 48°19' W 005°07'1224.0
2017-Oct-10 02:00N 48°07' W 005°10'1223.4
2017-Oct-10 01:31N 47°55' W 005°09'1223.0
2017-Oct-10 01:00N 47°44' W 005°05'1123.0
2017-Oct-10 00:31N 47°33' W 005°01'1423.3
2017-Oct-09 23:55N 47°19' W 004°57'922.9
2017-Oct-09 23:30N 47°10' W 004°54'1322.8
2017-Oct-09 22:56N 46°57' W 004°50'1022.9
2017-Oct-09 22:29N 46°47' W 004°46'1123.3
2017-Oct-09 22:00N 46°36' W 004°43'1523.3
2017-Oct-09 21:21N 46°22' W 004°37'822.6
2017-Oct-09 21:00N 46°14' W 004°35'13623.3
2017-Oct-09 15:10N 44°01' W 003°54'1423.2
2017-Oct-09 14:34N 43°48' W 003°50'123.4
2017-Oct-09 14:30N 43°46' W 003°49'1223.5
2017-Oct-09 14:01N 43°35' W 003°46'815.1
2017-Oct-09 13:30N 43°27' W 003°48'0 1.0
2017-Oct-09 13:00N 43°28' W 003°48'0 0.0
2017-Oct-09 12:30N 43°28' W 003°48'0 0.0
2017-Oct-09 12:00N 43°28' W 003°48'0 0.0
2017-Oct-09 11:30N 43°28' W 003°48'0 0.0
2017-Oct-09 11:00N 43°28' W 003°48'0 0.0
2017-Oct-09 10:30N 43°28' W 003°48'0 0.0
2017-Oct-09 10:00N 43°28' W 003°48'4 7.4
2017-Oct-09 09:30N 43°30' W 003°45'1223.1
2017-Oct-09 09:00N 43°41' W 003°49'1223.4
2017-Oct-09 08:31N 43°53' W 003°53'1223.5
2017-Oct-09 08:00N 44°04' W 003°56'22523.3
2017-Oct-08 22:20N 47°44' W 005°04'824.9
2017-Oct-08 22:00N 47°53' W 005°07'1325.5
2017-Oct-08 21:29N 48°06' W 005°10'1224.5
2017-Oct-08 21:00N 48°17' W 005°08'1121.2
2017-Oct-08 20:30N 48°27' W 005°01'1020.9
2017-Oct-08 20:00N 48°37' W 004°57'1223.3
2017-Oct-08 19:30N 48°48' W 004°54'1322.6
2017-Oct-08 18:57N 49°01' W 004°49'4822.1
2017-Oct-08 16:46N 49°47' W 004°27'622.6
2017-Oct-08 16:31N 49°52' W 004°24'1122.9
2017-Oct-08 16:01N 50°03' W 004°18'1123.0
2017-Oct-08 15:31N 50°14' W 004°12'815.7
2017-Oct-08 15:00N 50°21' W 004°09'1 1.3
2017-Oct-08 14:30N 50°22' W 004°09'0 0.0
2017-Oct-08 14:00N 50°22' W 004°09'0 0.0
2017-Oct-08 13:30N 50°22' W 004°09'0 0.0
2017-Oct-08 13:00N 50°22' W 004°09'0 0.0
2017-Oct-08 12:30N 50°22' W 004°09'0 1.0
2017-Oct-08 12:00N 50°21' W 004°09'714.1
2017-Oct-08 11:31N 50°15' W 004°11'1122.8
2017-Oct-08 11:00N 50°03' W 004°09'1122.7
2017-Oct-08 10:30N 49°52' W 004°04'1222.9
2017-Oct-08 09:59N 49°40' W 004°04'1123.0
2017-Oct-08 09:29N 49°29' W 004°04'1223.1
2017-Oct-08 08:57N 49°16' W 004°02'  

Dump ship's entire track history